King Salmon, AK (99549)

8:05 PM AKDT on July 31, 2014 (GMT -0800)
Port Heiden (PAPH) Elev 95 ft | 56.96 °N, 158.63 °W | Change Station

Current weather conditions updated 9 minutes ago

Mostly Cloudy
Mostly Cloudy
66 °F
Feels Like 66 °F
N
8
Wind Variable Wind from South

Tomorrow is forecast to be Cooler than today.

Today
High -- | Low -- °F
--% Chance of Precip.
Yesterday
High -- | Low -- °F
Precip. -- in
6:32 AM 10:48 PM
Waxing Crescent, 23% visible
Pressure 30.30 in
Visibility 10.0 miles
Clouds Mostly Cloudy 3900 ft
Mostly Cloudy 5000 ft
Dew Point 46 °F
Humidity 49%
Rainfall 0.00 in
Snow Depth Not available.
UV 1 out of 12
Pollen Not available.
Air Quality Not available.
Flu Activity Not available.
METAR PAPH 010356Z AUTO 19007KT 10SM BKN039 BKN050 19/08 A3030 RMK AO1

More Conditions Fewer Conditions

Pressure 30.30 in
Visibility 10.0 miles
Clouds Mostly Cloudy 3900 ft
Mostly Cloudy 5000 ft
Dew Point 46 °F
Humidity 49%
Rainfall 0.00 in
Snow Depth Not available.
UV 1 out of 12
Pollen Not available.
Air Quality Not available.
Flu Activity Not available.
METAR PAPH 010356Z AUTO 19007KT 10SM BKN039 BKN050 19/08 A3030 RMK AO1

More Conditions Fewer Conditions

10-Day Weather Forecast

Almanac

Astronomy

Jul. 31, 2014 Rise Set
Actual Time 6:32 AM AKDT 10:48 PM AKDT
Civil Twilight 5:40 AM AKDT 11:39 PM AKDT
Nautical Twilight 4:20 AM AKDT 12:57 AM AKDT
Astronomical Twilight Sun does not rise 2:08 AM AKDT
Moon 12:17 PM AKDT (7/31) 11:55 PM AKDT (7/31)
Length of Visible Light 17h 58m
Length of Day
16h 16m
Tomorrow will be 4m 4s shorter.
Waxing Crescent, 23% of the Moon is Illuminated
Aug 1
Waxing Crescent
Aug 3
First Quarter
Aug 10
Full
Aug 17
Last Quarter
Aug 25
New

Today's Extremes

State Highs State Lows

Community

WunderPhotos

Upload Photos

1,739,508 photos uploaded!

Nearby

Snow Depth

Station Depth Elevation
Mcneil Canyon 1 in 1320 ft
MF Bradley River 225 in 2300 ft
Cooper Lake 1 in 1200 ft
Grouse Creek Divide 0 in 700 ft
Summit Creek 0 in 1400 ft

Earthquake Activity

City Distance Mag. Time & Date
No recent earthquake activity has been reported nearby.
Minimum magnitude displayed is 2.5.

Coastal Water Temperatures

Place Temperature
No Stations Reporting

Nearby Weather Stations

There are no personal weather stations in this area.